createdAt,value
2022-10-22T00:02:01.122Z,96.80
2022-10-22T00:04:48.450Z,97.10
2022-10-22T00:07:39.369Z,97.40
2022-10-22T00:10:27.742Z,97.30
2022-10-22T00:13:13.725Z,97.10
2022-10-22T00:16:01.521Z,96.90
2022-10-22T00:18:47.669Z,96.60
2022-10-22T00:21:32.919Z,96.20
2022-10-22T00:24:22.827Z,95.80
2022-10-22T00:27:14.806Z,95.30
2022-10-22T00:30:02.762Z,95.10
2022-10-22T00:32:48.364Z,94.90
2022-10-22T00:35:35.858Z,94.70
2022-10-22T00:38:21.554Z,94.50
2022-10-22T00:41:13.740Z,94.40
2022-10-22T00:44:08.183Z,94.30
2022-10-22T00:46:58.563Z,94.20
2022-10-22T00:49:46.746Z,94.10
2022-10-22T00:52:32.831Z,94.10
2022-10-22T00:55:23.767Z,94.20
2022-10-22T00:58:16.471Z,94.30
2022-10-22T01:01:15.829Z,94.40
2022-10-22T01:04:01.254Z,94.50
2022-10-22T01:06:47.738Z,94.60
2022-10-22T01:10:01.042Z,94.90
2022-10-22T01:12:50.986Z,95.10
2022-10-22T01:16:11.134Z,95.30
2022-10-22T01:19:05.306Z,95.40
2022-10-22T01:21:58.753Z,95.50
2022-10-22T01:25:25.189Z,95.60
2022-10-22T01:28:17.494Z,95.60
2022-10-22T01:31:11.926Z,95.60
2022-10-22T01:33:59.936Z,95.60
2022-10-22T01:36:48.626Z,95.60
2022-10-22T01:39:36.763Z,95.60
2022-10-22T01:42:29.010Z,95.60
2022-10-22T01:45:20.813Z,95.60
2022-10-22T01:48:12.628Z,95.60
2022-10-22T01:51:36.606Z,95.50
2022-10-22T01:55:12.567Z,95.50
2022-10-22T01:58:34.526Z,95.70
2022-10-22T02:01:29.567Z,95.80
2022-10-22T02:04:33.234Z,96.00
2022-10-22T02:07:31.077Z,96.00
2022-10-22T02:10:24.404Z,96.00
2022-10-22T02:13:47.256Z,96.00
2022-10-22T02:16:44.465Z,96.20
2022-10-22T02:20:05.110Z,96.20
2022-10-22T02:22:50.575Z,96.30
2022-10-22T02:25:42.136Z,96.30
2022-10-22T02:28:58.545Z,96.20
2022-10-22T02:31:46.945Z,96.10
2022-10-22T02:34:34.145Z,96.00
2022-10-22T02:37:20.737Z,96.40
2022-10-22T02:40:13.391Z,96.20
2022-10-22T02:42:58.989Z,96.30
2022-10-22T02:45:47.299Z,96.50
2022-10-22T02:48:36.627Z,96.70
2022-10-22T02:51:22.374Z,96.90
2022-10-22T02:54:15.329Z,96.90
2022-10-22T02:57:00.972Z,96.90
2022-10-22T02:59:46.592Z,97.00
2022-10-22T03:02:39.086Z,97.10
2022-10-22T03:05:26.903Z,97.10
2022-10-22T03:08:18.777Z,97.10
2022-10-22T03:11:07.168Z,97.10
2022-10-22T03:13:52.792Z,97.00
2022-10-22T03:16:50.506Z,97.00
2022-10-22T03:19:35.906Z,97.00
2022-10-22T03:22:29.625Z,96.90
2022-10-22T03:25:21.135Z,97.10
2022-10-22T03:28:18.606Z,96.50
2022-10-22T03:31:08.508Z,96.40
2022-10-22T03:33:53.883Z,96.20
2022-10-22T03:36:41.587Z,96.10
2022-10-22T03:39:28.716Z,95.90
2022-10-22T03:42:14.153Z,95.80
2022-10-22T03:44:59.448Z,95.70
2022-10-22T03:47:45.658Z,95.60
2022-10-22T03:50:32.089Z,95.50
2022-10-22T03:53:24.133Z,95.40
2022-10-22T03:56:11.489Z,95.40
2022-10-22T03:58:58.637Z,95.30
2022-10-22T04:01:44.058Z,95.30
2022-10-22T04:04:32.815Z,95.30
2022-10-22T04:07:18.641Z,95.20
2022-10-22T04:10:13.525Z,95.10
2022-10-22T04:13:07.940Z,95.10
2022-10-22T04:15:54.206Z,95.00
2022-10-22T04:18:40.991Z,94.90
2022-10-22T04:21:33.276Z,94.90
2022-10-22T04:24:18.473Z,94.90
2022-10-22T04:27:13.007Z,94.90
2022-10-22T04:30:06.703Z,94.90
2022-10-22T04:32:51.862Z,94.90
2022-10-22T04:35:39.846Z,94.90
2022-10-22T04:38:31.730Z,94.90
2022-10-22T04:41:27.225Z,94.80
2022-10-22T04:44:19.045Z,94.80
2022-10-22T04:47:10.867Z,94.90
2022-10-22T04:50:02.671Z,94.90
2022-10-22T04:52:50.382Z,94.90
2022-10-22T04:55:39.278Z,94.80
2022-10-22T04:58:24.695Z,94.90
2022-10-22T05:01:20.287Z,94.90
2022-10-22T05:04:17.127Z,95.00
2022-10-22T05:07:09.270Z,95.10
2022-10-22T05:09:55.359Z,95.30
2022-10-22T05:12:40.846Z,95.30
2022-10-22T05:15:29.081Z,95.40
2022-10-22T05:18:16.706Z,95.70
2022-10-22T05:21:16.738Z,96.00
2022-10-22T05:24:09.788Z,95.90
2022-10-22T05:26:59.991Z,96.00
2022-10-22T05:29:46.875Z,96.10
2022-10-22T05:32:38.074Z,96.40
2022-10-22T05:35:25.474Z,96.60
2022-10-22T05:38:13.014Z,96.60
2022-10-22T05:41:10.375Z,96.80
2022-10-22T05:44:00.277Z,96.80
2022-10-22T05:46:45.756Z,96.80
2022-10-22T05:49:31.777Z,96.80
2022-10-22T05:52:24.454Z,96.80
2022-10-22T05:55:16.849Z,96.90
2022-10-22T05:58:03.935Z,97.00
2022-10-22T06:00:54.355Z,97.20
2022-10-22T06:03:43.635Z,97.30
2022-10-22T06:06:50.280Z,97.20
2022-10-22T06:09:39.245Z,97.20
2022-10-22T06:12:33.473Z,97.20
2022-10-22T06:15:21.986Z,97.30
2022-10-22T06:18:14.575Z,97.40
2022-10-22T06:21:11.745Z,97.50
2022-10-22T06:23:59.509Z,97.60
2022-10-22T06:26:50.968Z,97.70
2022-10-22T06:29:36.576Z,97.90
2022-10-22T06:32:26.642Z,98.20
2022-10-22T06:35:16.553Z,98.00
2022-10-22T06:38:09.128Z,97.90
2022-10-22T06:41:03.649Z,97.70
2022-10-22T06:43:52.112Z,97.40
2022-10-22T06:46:47.308Z,97.10
2022-10-22T06:49:39.280Z,96.70
2022-10-22T06:52:27.004Z,96.30
2022-10-22T06:55:19.162Z,95.40
2022-10-22T06:58:10.961Z,95.00
2022-10-22T07:01:13.343Z,95.20
2022-10-22T07:04:01.670Z,94.40
2022-10-22T07:06:55.612Z,93.80
2022-10-22T07:09:47.332Z,93.50
2022-10-22T07:12:40.199Z,92.80
2022-10-22T07:15:30.158Z,92.40
2022-10-22T07:18:18.367Z,92.00
2022-10-22T07:21:11.892Z,91.60
2022-10-22T07:24:04.696Z,91.20
2022-10-22T07:26:54.590Z,90.90
2022-10-22T07:29:46.239Z,90.60
2022-10-22T07:32:32.033Z,90.20
2022-10-22T07:35:24.058Z,89.60
2022-10-22T07:38:16.509Z,88.20
2022-10-22T07:41:08.278Z,87.40
2022-10-22T07:43:57.705Z,86.40
2022-10-22T07:46:50.031Z,86.30
2022-10-22T07:49:36.063Z,85.60
2022-10-22T07:52:28.252Z,85.70
2022-10-22T07:55:15.460Z,84.80
2022-10-22T07:58:01.454Z,83.60
2022-10-22T08:00:50.820Z,82.90
2022-10-22T08:03:40.747Z,83.00
2022-10-22T08:06:26.304Z,82.80
2022-10-22T08:09:15.584Z,82.60
2022-10-22T08:12:06.611Z,82.60
2022-10-22T08:15:01.479Z,82.60
2022-10-22T08:17:49.523Z,82.60
2022-10-22T08:20:35.891Z,82.70
2022-10-22T08:23:29.011Z,82.70
2022-10-22T08:26:14.547Z,82.60
2022-10-22T08:29:10.712Z,82.70
2022-10-22T08:31:56.516Z,82.60
2022-10-22T08:34:47.367Z,82.60
2022-10-22T08:37:41.570Z,82.70
2022-10-22T08:40:40.165Z,82.70
2022-10-22T08:43:53.750Z,82.60
2022-10-22T08:47:08.041Z,82.20
2022-10-22T08:49:55.040Z,82.00
2022-10-22T08:52:44.498Z,82.00
2022-10-22T08:55:36.510Z,81.60
2022-10-22T08:58:47.794Z,81.30
2022-10-22T09:01:45.952Z,80.40
2022-10-22T09:04:39.185Z,80.30
2022-10-22T09:07:27.128Z,80.50
2022-10-22T09:10:21.572Z,80.10
2022-10-22T09:13:11.443Z,79.60
2022-10-22T09:16:01.781Z,79.80
2022-10-22T09:19:12.468Z,79.20
2022-10-22T09:22:11.460Z,79.20
2022-10-22T09:25:17.109Z,78.40
2022-10-22T09:28:10.278Z,78.40
2022-10-22T09:30:56.140Z,77.80
2022-10-22T09:33:53.352Z,77.40
2022-10-22T09:36:47.231Z,76.30
2022-10-22T09:39:38.199Z,75.60
2022-10-22T09:42:34.896Z,75.20
2022-10-22T09:45:26.973Z,74.30
2022-10-22T09:48:28.506Z,73.60
2022-10-22T09:51:24.510Z,72.50
2022-10-22T09:54:33.267Z,72.30
2022-10-22T09:57:22.690Z,71.00
2022-10-22T10:00:20.817Z,69.70
2022-10-22T10:03:22.785Z,68.40
2022-10-22T10:06:09.368Z,68.00
2022-10-22T10:08:57.820Z,68.00
2022-10-22T10:12:29.164Z,68.60
2022-10-22T10:15:38.323Z,68.70
2022-10-22T10:19:14.363Z,69.60
2022-10-22T10:22:12.156Z,70.00
2022-10-22T10:25:07.485Z,70.50
2022-10-22T10:28:34.790Z,70.80
2022-10-22T10:31:26.889Z,71.50
2022-10-22T10:34:38.050Z,72.20
2022-10-22T10:37:29.699Z,72.00
2022-10-22T10:40:51.501Z,72.80
2022-10-22T10:44:15.218Z,72.90
2022-10-22T10:47:37.184Z,72.50
2022-10-22T10:50:34.463Z,72.30
2022-10-22T10:53:40.339Z,72.70
2022-10-22T10:56:47.538Z,72.90
2022-10-22T10:59:54.676Z,73.40
2022-10-22T11:03:31.867Z,72.50
2022-10-22T11:06:23.039Z,72.20
2022-10-22T11:09:39.493Z,69.50
2022-10-22T11:12:39.645Z,68.40
2022-10-22T11:15:36.039Z,67.40
2022-10-22T11:18:54.305Z,66.20
2022-10-22T11:21:54.855Z,64.50
2022-10-22T11:28:28.936Z,65.80
2022-10-22T11:34:48.125Z,65.20
2022-10-22T11:40:58.259Z,64.50
2022-10-22T11:44:20.925Z,65.30
2022-10-22T11:47:24.049Z,64.40
2022-10-22T11:50:25.086Z,65.70
2022-10-22T11:53:14.058Z,66.10
2022-10-22T11:56:22.936Z,66.50
2022-10-22T11:59:39.616Z,66.50
2022-10-22T12:02:46.010Z,67.30
2022-10-22T12:05:36.170Z,67.20
2022-10-22T12:08:34.143Z,67.60
2022-10-22T12:11:36.981Z,67.90
2022-10-22T12:14:40.769Z,68.10
2022-10-22T12:17:31.329Z,67.50
2022-10-22T12:20:17.639Z,66.00
2022-10-22T12:23:12.558Z,66.10
2022-10-22T12:25:58.573Z,65.60
2022-10-22T12:28:47.259Z,66.30
2022-10-22T12:31:39.136Z,67.50
2022-10-22T12:34:31.764Z,68.00
2022-10-22T12:37:23.918Z,67.30
2022-10-22T12:40:21.812Z,67.00
2022-10-22T12:43:29.957Z,65.20
2022-10-22T12:46:18.576Z,53.80
2022-10-22T12:49:22.531Z,39.30
2022-10-22T12:52:22.185Z,38.00
2022-10-22T12:55:18.086Z,36.30
2022-10-22T12:58:25.319Z,43.30
2022-10-22T13:01:22.517Z,42.40
2022-10-22T13:04:17.390Z,30.50
2022-10-22T13:07:19.879Z,27.20
2022-10-22T13:10:33.818Z,26.10
2022-10-22T13:13:34.571Z,32.50
2022-10-22T13:16:30.200Z,38.90
2022-10-22T13:19:49.834Z,41.70
2022-10-22T13:23:00.526Z,44.70
2022-10-22T13:26:00.046Z,48.20
2022-10-22T13:28:55.470Z,49.00
2022-10-22T13:31:47.453Z,50.80
2022-10-22T13:34:36.450Z,52.50
2022-10-22T13:40:33.907Z,54.00
2022-10-22T13:43:24.037Z,55.20
2022-10-22T13:46:10.903Z,56.20
2022-10-22T13:48:59.992Z,56.40
2022-10-22T13:51:46.530Z,57.00
2022-10-22T13:54:37.907Z,57.60
2022-10-22T13:57:23.485Z,56.80
2022-10-22T14:00:13.463Z,56.80
2022-10-22T14:03:00.861Z,57.40
2022-10-22T14:05:49.849Z,57.30
2022-10-22T14:08:35.669Z,57.50
2022-10-22T14:11:56.242Z,57.90
2022-10-22T14:17:49.603Z,58.20
2022-10-22T14:20:41.953Z,57.80
2022-10-22T14:23:31.760Z,57.60
2022-10-22T14:26:33.730Z,56.90
2022-10-22T14:29:21.667Z,58.00
2022-10-22T14:32:17.157Z,57.70
2022-10-22T14:35:15.152Z,57.60
2022-10-22T14:38:00.788Z,58.10
2022-10-22T14:40:49.506Z,58.40
2022-10-22T14:43:34.875Z,58.50
2022-10-22T14:46:20.223Z,59.10
2022-10-22T14:49:06.248Z,59.70
2022-10-22T14:51:51.874Z,59.50
2022-10-22T14:54:39.554Z,60.00
2022-10-22T14:57:25.640Z,60.00
2022-10-22T15:00:17.844Z,60.20
2022-10-22T15:03:04.499Z,60.60
2022-10-22T15:09:05.428Z,61.20
2022-10-22T15:11:51.308Z,61.70
2022-10-22T15:17:58.915Z,61.80
2022-10-22T15:20:44.734Z,62.00
2022-10-22T15:23:33.006Z,62.30
2022-10-22T15:26:18.746Z,63.00
2022-10-22T15:29:07.203Z,63.20
2022-10-22T15:31:57.728Z,63.50
2022-10-22T15:34:45.516Z,63.80
2022-10-22T15:37:31.867Z,64.20
2022-10-22T15:40:17.712Z,64.60
2022-10-22T15:43:03.386Z,64.70
2022-10-22T15:46:16.421Z,64.90
2022-10-22T15:49:02.018Z,65.70
2022-10-22T15:51:50.472Z,66.00
2022-10-22T15:54:36.221Z,66.10
2022-10-22T15:57:26.398Z,66.50
2022-10-22T16:00:12.641Z,66.90
2022-10-22T16:03:00.074Z,67.40
2022-10-22T16:05:54.513Z,67.50
2022-10-22T16:08:42.461Z,67.90
2022-10-22T16:11:29.776Z,68.30
2022-10-22T16:14:17.607Z,68.90
2022-10-22T16:17:03.115Z,69.20
2022-10-22T16:19:48.773Z,70.20
2022-10-22T16:22:34.094Z,71.00
2022-10-22T16:25:19.931Z,71.40
2022-10-22T16:28:05.447Z,72.40
2022-10-22T16:30:51.033Z,73.40
2022-10-22T16:33:41.701Z,74.50
2022-10-22T16:36:29.793Z,75.30
2022-10-22T16:39:17.808Z,76.10
2022-10-22T16:42:03.380Z,77.00
2022-10-22T16:44:48.884Z,78.40
2022-10-22T16:47:34.546Z,78.60
2022-10-22T16:50:20.110Z,80.00
2022-10-22T16:53:07.811Z,79.00
2022-10-22T16:55:53.259Z,79.20
2022-10-22T16:58:39.604Z,78.60
2022-10-22T17:01:29.040Z,78.40
2022-10-22T17:04:17.266Z,78.50
2022-10-22T17:07:03.127Z,79.90
2022-10-22T17:09:48.633Z,79.60
2022-10-22T17:12:36.653Z,80.30
2022-10-22T17:15:22.578Z,81.60
2022-10-22T17:18:08.225Z,81.70
2022-10-22T17:20:56.199Z,81.90
2022-10-22T17:23:44.106Z,80.80
2022-10-22T17:26:30.420Z,79.50
2022-10-22T17:29:21.925Z,78.40
2022-10-22T17:32:07.293Z,78.20
2022-10-22T17:34:52.776Z,78.10
2022-10-22T17:37:40.624Z,78.40
2022-10-22T17:40:27.038Z,79.10
2022-10-22T17:43:12.544Z,79.90
2022-10-22T17:46:12.963Z,80.60
2022-10-22T17:49:12.630Z,80.20
2022-10-22T17:51:58.036Z,79.70
2022-10-22T17:54:43.666Z,79.90
2022-10-22T17:57:32.296Z,80.20
2022-10-22T18:00:21.383Z,79.90
2022-10-22T18:03:07.284Z,80.10
2022-10-22T18:05:54.718Z,80.30
2022-10-22T18:08:40.582Z,80.00
2022-10-22T18:11:27.797Z,80.00
2022-10-22T18:14:13.876Z,79.90
2022-10-22T18:17:02.552Z,79.30
2022-10-22T18:19:50.912Z,78.90
2022-10-22T18:22:41.321Z,78.50
2022-10-22T18:25:27.107Z,77.90
2022-10-22T18:28:17.000Z,77.90
2022-10-22T18:31:11.689Z,77.60
2022-10-22T18:33:58.003Z,76.90
2022-10-22T18:36:48.840Z,76.60
2022-10-22T18:39:35.062Z,75.90
2022-10-22T18:42:21.116Z,75.90
2022-10-22T18:45:12.878Z,75.50
2022-10-22T18:48:00.761Z,75.10
2022-10-22T18:50:58.134Z,74.90
2022-10-22T18:53:58.716Z,74.60
2022-10-22T18:56:50.385Z,75.00
2022-10-22T18:59:36.603Z,75.60
2022-10-22T19:02:22.342Z,75.60
2022-10-22T19:05:10.613Z,75.50
2022-10-22T19:07:55.952Z,75.90
2022-10-22T19:10:43.896Z,75.30
2022-10-22T19:13:31.338Z,75.10
2022-10-22T19:16:26.823Z,75.00
2022-10-22T19:19:20.217Z,74.70
2022-10-22T19:22:05.650Z,74.70
2022-10-22T19:24:53.935Z,74.60
2022-10-22T19:27:40.166Z,75.00
2022-10-22T19:30:26.338Z,75.10
2022-10-22T19:33:15.302Z,75.20
2022-10-22T19:36:09.323Z,75.40
2022-10-22T19:38:56.354Z,75.40
2022-10-22T19:41:41.675Z,75.10
2022-10-22T19:44:27.673Z,74.90
2022-10-22T19:47:13.157Z,74.80
2022-10-22T19:49:58.782Z,74.80
2022-10-22T19:52:46.754Z,75.10
2022-10-22T19:55:35.534Z,75.40
2022-10-22T19:58:23.753Z,75.60
2022-10-22T20:01:11.461Z,75.60
2022-10-22T20:04:01.432Z,75.20
2022-10-22T20:06:50.057Z,75.20
2022-10-22T20:09:35.883Z,75.30
2022-10-22T20:12:21.340Z,75.40
2022-10-22T20:15:09.534Z,75.50
2022-10-22T20:17:54.783Z,75.60
2022-10-22T20:20:45.320Z,75.80
2022-10-22T20:23:31.000Z,75.90
2022-10-22T20:26:16.381Z,75.80
2022-10-22T20:29:07.655Z,75.80
2022-10-22T20:31:53.623Z,75.60
2022-10-22T20:34:42.473Z,75.20
2022-10-22T20:37:30.446Z,74.90
2022-10-22T20:40:16.217Z,74.70
2022-10-22T20:43:02.199Z,74.40
2022-10-22T20:45:47.309Z,74.30
2022-10-22T20:48:33.137Z,74.30
2022-10-22T20:51:19.292Z,73.90
2022-10-22T20:54:06.042Z,73.70
2022-10-22T20:56:54.075Z,73.70
2022-10-22T20:59:40.200Z,73.60
2022-10-22T21:02:28.219Z,73.70
2022-10-22T21:05:14.049Z,73.70
2022-10-22T21:07:59.676Z,73.50
2022-10-22T21:10:48.775Z,73.30
2022-10-22T21:13:36.796Z,73.20
2022-10-22T21:16:22.656Z,73.00
2022-10-22T21:19:08.203Z,73.00
2022-10-22T21:21:54.686Z,72.80
2022-10-22T21:24:41.105Z,72.80
2022-10-22T21:27:26.516Z,73.20
2022-10-22T21:30:12.804Z,73.40
2022-10-22T21:32:58.234Z,73.50
2022-10-22T21:35:54.812Z,73.70
2022-10-22T21:38:42.829Z,73.80
2022-10-22T21:41:30.777Z,73.80
2022-10-22T21:44:16.706Z,74.00
2022-10-22T21:47:04.517Z,74.00
2022-10-22T21:49:52.560Z,74.10
2022-10-22T21:52:40.786Z,74.10
2022-10-22T21:55:26.400Z,74.00
2022-10-22T21:58:12.018Z,74.10
2022-10-22T22:00:58.621Z,73.90
2022-10-22T22:03:48.080Z,74.20
2022-10-22T22:06:35.112Z,75.00
2022-10-22T22:09:21.174Z,75.50
2022-10-22T22:12:09.450Z,76.00
2022-10-22T22:14:57.666Z,76.80
2022-10-22T22:17:43.433Z,77.00
2022-10-22T22:20:28.760Z,76.90
2022-10-22T22:23:14.490Z,77.40
2022-10-22T22:26:03.322Z,78.00
2022-10-22T22:28:49.162Z,78.90
2022-10-22T22:31:35.418Z,79.30
2022-10-22T22:34:20.736Z,80.10
2022-10-22T22:37:06.599Z,80.20
2022-10-22T22:39:52.119Z,80.70
2022-10-22T22:42:39.827Z,81.30
2022-10-22T22:45:25.161Z,81.70
2022-10-22T22:48:10.815Z,82.00
2022-10-22T22:51:01.738Z,82.40
2022-10-22T22:53:47.112Z,82.60
2022-10-22T22:56:34.623Z,83.20
2022-10-22T22:59:22.729Z,83.50
2022-10-22T23:02:10.545Z,83.90
2022-10-22T23:04:55.822Z,84.30
2022-10-22T23:07:41.214Z,84.70
2022-10-22T23:10:29.470Z,84.10
2022-10-22T23:13:14.925Z,83.90
2022-10-22T23:16:00.337Z,84.20
2022-10-22T23:18:47.977Z,84.30
2022-10-22T23:21:41.341Z,85.50
2022-10-22T23:24:29.295Z,85.50
2022-10-22T23:27:14.875Z,86.00
2022-10-22T23:30:03.346Z,86.00
2022-10-22T23:32:48.739Z,85.90
2022-10-22T23:35:38.636Z,86.00
2022-10-22T23:38:24.115Z,86.20
2022-10-22T23:41:10.161Z,86.30
2022-10-22T23:43:55.679Z,87.30
2022-10-22T23:46:41.779Z,87.30
2022-10-22T23:49:27.552Z,87.30
2022-10-22T23:52:15.767Z,87.30
2022-10-22T23:55:01.516Z,87.70
2022-10-22T23:57:49.692Z,87.60
